Aviation Digital Data Service (ADDS)

Output produced by METARs form (2210 UTC 16 February 2019)
found at http://www.aviationweather.gov/metar/data/
 
Forecast for: ROAH (NAHA (CIV/JASDF), JP)
Text: TAF ROAH 161707Z 1618/1800 03012KT 9999 FEW020 BKN035
Forecast period: 1800 UTC 16 February 2019 to 0000 UTC 18 February 2019
Forecast type: FROM: standard forecast or significant change
Winds: from the NNE (30 degrees) at 14 MPH (12 knots; 6.2 m/s)
Visibility: 6 or more miles 10+ km)
Ceiling: 3500 feet AGL
Clouds: few clouds at 2000 feet AGL
broken clouds at 3500 feet AGL
Weather: no significant weather forecast for this period